Time;durP1;ratioP1;P1;durP2;ratioP2;P2;SDS_P1;SDS_P2;PMS_P1;PMS_P2;Temp;Humidity;BMP_temperature;BMP_pressure;BME280_temperature;BME280_humidity;BME280_pressure;Samples;Min_cycle;Max_cycle;Signal;HPM_P1;HPM_P2
2022/11/23 00:01:42;;;;;;;1.47;1.40;;;17.10;71.30;;;;;;5049609;28;45754;-73
2022/11/23 00:04:11;;;;;;;1.50;1.50;;;17.10;71.40;;;;;;5066106;28;43352;-71
2022/11/23 00:06:39;;;;;;;1.50;1.50;;;17.10;71.60;;;;;;5050400;28;43526;-71
2022/11/23 00:09:07;;;;;;;1.33;1.33;;;17.10;71.70;;;;;;5070016;28;43321;-71
2022/11/23 00:11:35;;;;;;;1.37;1.37;;;17.20;71.40;;;;;;5066553;28;43905;-71
2022/11/23 00:14:05;;;;;;;1.40;1.40;;;17.30;70.90;;;;;;5063273;28;43441;-72
2022/11/23 00:16:33;;;;;;;1.30;1.30;;;17.40;70.70;;;;;;5059039;28;43353;-73
2022/11/23 00:19:01;;;;;;;1.20;1.20;;;17.30;70.40;;;;;;5061186;28;43527;-73
2022/11/23 00:21:30;;;;;;;1.37;1.37;;;17.30;70.50;;;;;;5063290;28;43892;-74
2022/11/23 00:23:58;;;;;;;1.37;1.37;;;17.30;70.90;;;;;;5068637;28;43442;-73
2022/11/23 00:26:26;;;;;;;1.20;1.20;;;17.30;70.90;;;;;;5064402;28;43368;-73
2022/11/23 00:28:54;;;;;;;1.40;1.40;;;17.30;70.80;;;;;;5049295;28;43589;-71
2022/11/23 00:31:28;;;;;;;1.40;1.40;;;17.20;70.80;;;;;;5067145;28;43849;-73
2022/11/23 00:33:56;;;;;;;1.47;1.37;;;17.20;70.90;;;;;;5051735;28;43958;-75
2022/11/23 00:36:25;;;;;;;1.20;1.20;;;17.20;71.10;;;;;;5067523;28;44063;-72
2022/11/23 00:38:53;;;;;;;2.23;1.40;;;17.10;71.20;;;;;;5065907;28;43468;-73
2022/11/23 00:41:22;;;;;;;1.40;1.40;;;17.10;71.40;;;;;;5047024;28;45671;-72
2022/11/23 00:43:50;;;;;;;1.30;1.30;;;17.10;71.20;;;;;;5065298;28;43806;-72
2022/11/23 00:46:18;;;;;;;1.20;1.20;;;17.10;71.20;;;;;;5067380;28;43419;-74
2022/11/23 00:48:48;;;;;;;1.33;1.33;;;17.10;71.20;;;;;;5067329;28;43543;-71
2022/11/23 00:51:17;;;;;;;1.27;1.27;;;17.10;71.30;;;;;;5067941;28;43674;-73
2022/11/23 00:53:45;;;;;;;1.10;1.10;;;17.10;71.40;;;;;;5048896;28;45000;-72
2022/11/23 00:56:13;;;;;;;1.57;1.50;;;17.10;71.70;;;;;;5063943;28;43428;-72
2022/11/23 00:58:41;;;;;;;1.40;1.40;;;17.10;71.40;;;;;;5045806;28;43543;-72
2022/11/23 01:01:10;;;;;;;1.27;1.27;;;17.10;71.40;;;;;;5048350;28;43800;-72
2022/11/23 01:03:39;;;;;;;1.30;1.30;;;17.10;71.40;;;;;;5067005;28;43411;-73
2022/11/23 01:06:10;;;;;;;1.57;1.50;;;17.10;71.40;;;;;;5062935;28;43438;-72
2022/11/23 01:08:38;;;;;;;1.20;1.20;;;17.10;71.50;;;;;;5051364;28;43412;-72
2022/11/23 01:11:06;;;;;;;1.60;1.50;;;17.00;71.70;;;;;;5063233;28;43903;-72
2022/11/23 01:13:35;;;;;;;1.30;1.30;;;17.10;71.70;;;;;;5045298;28;44352;-72
2022/11/23 01:16:05;;;;;;;1.30;1.30;;;17.20;71.30;;;;;;5044375;28;43520;-72
2022/11/23 01:18:33;;;;;;;1.30;1.30;;;17.30;70.80;;;;;;5069681;28;43462;-73
2022/11/23 01:21:01;;;;;;;1.30;1.30;;;17.50;70.30;;;;;;5050349;28;45692;-71
2022/11/23 01:23:32;;;;;;;1.40;1.40;;;17.50;69.90;;;;;;5048579;28;44367;-73
2022/11/23 01:26:04;;;;;;;1.20;1.20;;;17.50;69.90;;;;;;5068532;28;43444;-72
2022/11/23 01:28:32;;;;;;;1.40;1.40;;;17.40;69.90;;;;;;5044817;28;43601;-72
2022/11/23 01:31:04;;;;;;;1.30;1.30;;;17.40;70.20;;;;;;5066071;28;43958;-71
2022/11/23 01:33:32;;;;;;;1.13;1.13;;;17.30;70.40;;;;;;5068726;28;44131;-73
2022/11/23 01:36:01;;;;;;;1.30;1.30;;;17.20;70.60;;;;;;5052405;28;43730;-73
2022/11/23 01:38:28;;;;;;;1.50;1.50;;;17.20;71.20;;;;;;5067781;28;43384;-72
2022/11/23 01:40:59;;;;;;;1.27;1.27;;;17.20;71.00;;;;;;5050004;28;45811;-72
2022/11/23 01:43:27;;;;;;;1.23;1.23;;;17.20;71.00;;;;;;5040062;28;44345;-71
2022/11/23 01:45:57;;;;;;;1.20;1.20;;;17.10;71.00;;;;;;5066208;28;43448;-76
2022/11/23 01:48:27;;;;;;;1.20;1.20;;;17.10;71.10;;;;;;5052112;28;43634;-74
2022/11/23 01:50:55;;;;;;;1.23;1.23;;;17.10;71.20;;;;;;5069272;28;43908;-72
2022/11/23 01:53:23;;;;;;;1.30;1.20;;;17.10;71.40;;;;;;5047782;28;44617;-73
2022/11/23 01:55:51;;;;;;;1.30;1.30;;;17.10;71.40;;;;;;5043910;28;43424;-72
2022/11/23 01:58:21;;;;;;;1.10;1.10;;;17.20;71.20;;;;;;5069292;28;43416;-73
2022/11/23 02:00:49;;;;;;;1.10;1.10;;;17.20;70.80;;;;;;5048361;28;46148;-72
2022/11/23 02:03:17;;;;;;;1.40;1.40;;;17.20;70.70;;;;;;5072252;28;43386;-74
2022/11/23 02:05:47;;;;;;;1.50;1.50;;;17.20;70.70;;;;;;5061987;28;44094;-72
2022/11/23 02:08:15;;;;;;;1.60;1.50;;;17.20;70.90;;;;;;5046837;28;43477;-72
2022/11/23 02:10:45;;;;;;;1.20;1.20;;;17.10;71.10;;;;;;5043069;28;45460;-73
2022/11/23 02:13:13;;;;;;;1.20;1.20;;;17.10;71.00;;;;;;5050899;28;44282;-72
2022/11/23 02:15:42;;;;;;;1.37;1.37;;;17.10;71.00;;;;;;5071794;28;43522;-72
2022/11/23 02:18:14;;;;;;;1.43;1.43;;;17.10;71.10;;;;;;5052254;28;43553;-74
2022/11/23 02:20:43;;;;;;;1.10;1.10;;;17.10;71.10;;;;;;5056457;28;43905;-72
2022/11/23 02:23:18;;;;;;;1.20;1.20;;;17.00;71.20;;;;;;5049403;28;44617;-76
2022/11/23 02:26:00;;;;;;;1.20;1.20;;;17.00;71.50;;;;;;5069893;28;43492;-72
2022/11/23 02:28:30;;;;;;;1.30;1.30;;;17.00;71.60;;;;;;5052151;28;43504;-71
2022/11/23 02:30:57;;;;;;;1.20;1.20;;;17.10;71.20;;;;;;5065128;28;44086;-73
2022/11/23 02:33:25;;;;;;;1.20;1.20;;;17.20;70.90;;;;;;5047442;28;43803;-74
2022/11/23 02:35:55;;;;;;;1.20;1.20;;;17.20;70.70;;;;;;5071522;28;43423;-72
2022/11/23 02:38:23;;;;;;;1.30;1.30;;;17.20;70.70;;;;;;5046153;28;43912;-72
2022/11/23 02:40:51;;;;;;;1.27;1.27;;;17.20;71.00;;;;;;5054601;28;45796;-71
2022/11/23 02:43:23;;;;;;;1.40;1.30;;;17.20;71.20;;;;;;5053111;28;44830;-72
2022/11/23 02:45:55;;;;;;;1.20;1.20;;;17.20;71.00;;;;;;5052159;28;43483;-72
2022/11/23 02:48:25;;;;;;;1.20;1.20;;;17.10;70.90;;;;;;5064370;28;43478;-72
2022/11/23 02:50:53;;;;;;;1.50;1.50;;;17.10;71.00;;;;;;5067609;28;43916;-72
2022/11/23 02:53:21;;;;;;;1.10;1.10;;;17.10;71.10;;;;;;5065482;28;43412;-74
2022/11/23 02:55:49;;;;;;;1.40;1.40;;;17.10;71.10;;;;;;5066589;28;43429;-72
2022/11/23 02:58:17;;;;;;;1.23;1.23;;;17.00;71.50;;;;;;5050542;28;43499;-73
2022/11/23 03:00:48;;;;;;;1.30;1.30;;;17.10;71.40;;;;;;5050675;28;44129;-72
2022/11/23 03:03:19;;;;;;;1.30;1.30;;;17.20;71.20;;;;;;5061809;28;43472;-73
2022/11/23 03:05:47;;;;;;;1.20;1.20;;;17.20;70.80;;;;;;5065449;28;43463;-74
2022/11/23 03:08:15;;;;;;;1.37;1.27;;;17.20;70.70;;;;;;5069922;28;43931;-73
2022/11/23 03:10:43;;;;;;;1.20;1.20;;;17.20;70.80;;;;;;5070768;28;43684;-73
2022/11/23 03:13:11;;;;;;;1.20;1.20;;;17.20;70.90;;;;;;5050434;28;44455;-71
2022/11/23 03:15:40;;;;;;;1.20;1.20;;;17.10;71.20;;;;;;5048052;28;43401;-73
2022/11/23 03:18:11;;;;;;;1.10;1.10;;;17.10;71.10;;;;;;5049797;28;43523;-72
2022/11/23 03:20:39;;;;;;;1.30;1.30;;;17.10;71.00;;;;;;5043930;28;44211;-72
2022/11/23 03:23:07;;;;;;;1.43;1.43;;;17.10;71.10;;;;;;5055674;28;44621;-72
2022/11/23 03:25:35;;;;;;;1.20;1.20;;;17.10;71.10;;;;;;5047989;28;43489;-73
2022/11/23 03:28:05;;;;;;;1.27;1.20;;;17.00;71.20;;;;;;5046187;28;43452;-74
2022/11/23 03:30:33;;;;;;;1.20;1.20;;;17.00;71.60;;;;;;5049147;28;44096;-74
2022/11/23 03:33:04;;;;;;;1.40;1.40;;;17.10;71.40;;;;;;5046580;28;43517;-73
2022/11/23 03:35:33;;;;;;;1.40;1.30;;;17.20;71.10;;;;;;5069392;28;43480;-71
2022/11/23 03:38:16;;;;;;;1.40;1.40;;;17.20;70.80;;;;;;5050780;28;43523;-73
2022/11/23 03:40:45;;;;;;;1.10;1.10;;;17.20;70.60;;;;;;5045877;28;44359;-71
2022/11/23 03:43:20;;;;;;;1.50;1.40;;;17.20;70.70;;;;;;5047905;28;43476;-71
2022/11/23 03:45:48;;;;;;;1.23;1.23;;;17.10;71.00;;;;;;5048319;28;43441;-72
2022/11/23 03:48:16;;;;;;;1.17;1.17;;;17.10;71.00;;;;;;5043538;28;43515;-72
2022/11/23 03:50:46;;;;;;;1.30;1.30;;;17.10;70.90;;;;;;5045598;28;46012;-73
2022/11/23 03:53:15;;;;;;;1.17;1.17;;;17.10;70.90;;;;;;5047829;28;44442;-73
2022/11/23 03:55:45;;;;;;;1.50;1.40;;;17.10;71.10;;;;;;5049659;28;44093;-71
2022/11/23 03:58:14;;;;;;;1.20;1.20;;;17.00;71.00;;;;;;5051596;28;43381;-73
2022/11/23 04:00:42;;;;;;;1.40;1.40;;;17.00;71.20;;;;;;5062738;28;43832;-72
2022/11/23 04:03:13;;;;;;;1.10;1.10;;;17.00;71.50;;;;;;5042649;28;43440;-72
2022/11/23 04:06:12;;;;;;;1.30;1.30;;;17.00;71.20;;;;;;5047703;28;43441;-73
2022/11/23 04:09:18;;;;;;;1.20;1.20;;;17.00;71.10;;;;;;5020496;28;43457;-74
2022/11/23 04:12:17;;;;;;;1.40;1.40;;;17.00;71.20;;;;;;5006100;28;43988;-74
2022/11/23 04:14:45;;;;;;;1.20;1.20;;;17.00;71.30;;;;;;5033761;28;44224;-71
2022/11/23 04:17:13;;;;;;;1.40;1.40;;;17.00;71.50;;;;;;5048477;28;43415;-72
2022/11/23 04:19:41;;;;;;;1.30;1.30;;;17.00;71.60;;;;;;5051234;28;43538;-72
2022/11/23 04:22:11;;;;;;;1.10;1.10;;;17.10;71.40;;;;;;5045757;28;45573;-72
2022/11/23 04:24:42;;;;;;;1.30;1.30;;;17.20;70.90;;;;;;5050163;28;43388;-73
2022/11/23 04:27:10;;;;;;;1.30;1.30;;;17.30;70.70;;;;;;5043775;28;43656;-74
2022/11/23 04:29:38;;;;;;;1.20;1.20;;;17.20;70.50;;;;;;5056331;28;43381;-73
2022/11/23 04:32:07;;;;;;;1.23;1.23;;;17.20;70.60;;;;;;5046856;28;43987;-71
2022/11/23 04:34:37;;;;;;;1.50;1.40;;;17.20;71.20;;;;;;5047301;28;43442;-73
2022/11/23 04:37:06;;;;;;;1.20;1.20;;;17.10;70.90;;;;;;5047798;28;43338;-73
2022/11/23 04:39:42;;;;;;;1.10;1.10;;;17.10;70.80;;;;;;5046924;28;43472;-72
2022/11/23 04:42:18;;;;;;;1.07;1.07;;;17.10;70.90;;;;;;5050327;28;45488;-71
2022/11/23 04:44:51;;;;;;;1.30;1.30;;;17.10;71.00;;;;;;5042226;28;44710;-71
2022/11/23 04:47:20;;;;;;;1.70;1.10;;;17.10;71.10;;;;;;5052593;28;43391;-72
2022/11/23 04:49:48;;;;;;;1.57;1.43;;;17.00;71.30;;;;;;5053478;28;43547;-72
2022/11/23 04:52:18;;;;;;;1.63;1.53;;;17.00;71.30;;;;;;5046625;28;45841;-72
2022/11/23 04:54:48;;;;;;;1.40;1.40;;;17.00;71.20;;;;;;5045280;28;43395;-72
2022/11/23 04:57:17;;;;;;;1.70;1.60;;;17.00;71.10;;;;;;5064755;28;43391;-72
2022/11/23 04:59:46;;;;;;;1.47;1.40;;;17.00;71.20;;;;;;5047298;28;43633;-72
2022/11/23 05:02:15;;;;;;;1.67;1.67;;;17.00;71.20;;;;;;5051962;28;45619;-70
2022/11/23 05:04:54;;;;;;;3.00;1.93;;;17.00;71.30;;;;;;5049062;28;43472;-72
2022/11/23 05:07:27;;;;;;;1.73;1.63;;;17.00;71.50;;;;;;5047622;28;43350;-75
2022/11/23 05:10:02;;;;;;;2.00;1.90;;;17.00;71.30;;;;;;5052518;28;43592;-72
2022/11/23 05:12:31;;;;;;;1.70;1.60;;;17.00;71.20;;;;;;5049074;28;44057;-72
2022/11/23 05:15:01;;;;;;;2.33;2.10;;;17.00;71.20;;;;;;5044037;28;43274;-73
2022/11/23 05:17:35;;;;;;;7.87;2.40;;;17.00;71.20;;;;;;5046371;28;43456;-74
2022/11/23 05:20:07;;;;;;;2.47;1.90;;;17.00;71.20;;;;;;5052250;28;43430;-71
2022/11/23 05:22:38;;;;;;;2.73;2.20;;;17.00;71.60;;;;;;5053439;28;43845;-72
2022/11/23 05:25:10;;;;;;;2.60;2.10;;;17.10;71.50;;;;;;5045411;28;43479;-72
2022/11/23 05:27:39;;;;;;;3.70;2.30;;;17.20;71.00;;;;;;5053437;28;43462;-73
2022/11/23 05:30:09;;;;;;;2.40;1.97;;;17.30;70.70;;;;;;5048847;28;43454;-72
2022/11/23 05:32:37;;;;;;;2.27;2.10;;;17.30;70.40;;;;;;5056891;28;43846;-73
2022/11/23 05:35:07;;;;;;;2.70;2.13;;;17.30;70.50;;;;;;5049354;28;44586;-73
2022/11/23 05:37:37;;;;;;;3.43;2.37;;;17.20;70.70;;;;;;5054318;28;43991;-72
2022/11/23 05:40:11;;;;;;;2.50;2.30;;;17.20;70.90;;;;;;5054115;28;44081;-73
2022/11/23 05:42:39;;;;;;;2.00;1.90;;;17.20;70.60;;;;;;5053788;28;43812;-72
2022/11/23 05:45:15;;;;;;;2.73;2.20;;;17.20;70.60;;;;;;5048903;28;43827;-72
2022/11/23 05:47:50;;;;;;;2.03;1.80;;;17.20;70.80;;;;;;5052422;28;43385;-73
2022/11/23 05:50:24;;;;;;;2.40;2.20;;;17.10;70.80;;;;;;5045186;28;43401;-73
2022/11/23 05:53:12;;;;;;;2.50;2.30;;;17.10;71.00;;;;;;5066294;28;43557;-73
2022/11/23 05:55:44;;;;;;;2.20;2.10;;;17.10;71.00;;;;;;5042532;28;43397;-73
2022/11/23 05:58:13;;;;;;;2.60;2.40;;;17.10;70.90;;;;;;5052376;28;43460;-71
2022/11/23 06:00:41;;;;;;;2.97;2.20;;;17.10;70.90;;;;;;5053329;28;43430;-72
2022/11/23 06:03:09;;;;;;;2.03;1.93;;;17.10;71.00;;;;;;5052131;28;44046;-72
2022/11/23 06:05:38;;;;;;;3.80;2.53;;;17.10;71.10;;;;;;5052719;28;45212;-74
2022/11/23 06:08:06;;;;;;;2.80;2.20;;;17.00;71.20;;;;;;5051561;28;43491;-73
2022/11/23 06:10:34;;;;;;;2.33;2.13;;;17.00;71.30;;;;;;5045743;28;43504;-72
2022/11/23 06:13:04;;;;;;;2.47;2.27;;;17.10;71.10;;;;;;5054107;28;46162;-72
2022/11/23 06:15:33;;;;;;;3.07;2.40;;;17.20;70.70;;;;;;5053367;28;43431;-71
2022/11/23 06:18:03;;;;;;;4.40;2.77;;;17.20;70.40;;;;;;5048292;28;43367;-72
2022/11/23 06:20:39;;;;;;;2.70;2.50;;;17.20;70.40;;;;;;5053525;28;43400;-74
2022/11/23 06:23:07;;;;;;;3.47;2.10;;;17.20;70.60;;;;;;5044959;28;46204;-72
2022/11/23 06:25:37;;;;;;;2.87;2.53;;;17.20;70.90;;;;;;5052719;28;45095;-74
2022/11/23 06:28:12;;;;;;;2.30;2.10;;;17.20;70.70;;;;;;5047403;28;43386;-71
2022/11/23 06:30:45;;;;;;;2.77;2.57;;;17.10;70.70;;;;;;5061910;28;43396;-71
2022/11/23 06:33:14;;;;;;;2.43;2.23;;;17.10;70.70;;;;;;5048651;28;44003;-72
2022/11/23 06:35:57;;;;;;;2.80;2.37;;;17.10;70.80;;;;;;5050112;28;43534;-72
2022/11/23 06:38:30;;;;;;;2.50;2.30;;;17.10;70.90;;;;;;5066098;28;43463;-72
2022/11/23 06:41:03;;;;;;;2.50;2.30;;;17.00;71.20;;;;;;5047761;28;43587;-72
2022/11/23 06:43:32;;;;;;;4.93;2.10;;;17.00;71.00;;;;;;5052724;28;43585;-73
2022/11/23 06:46:03;;;;;;;2.57;2.37;;;17.00;70.90;;;;;;5045597;28;44633;-72
2022/11/23 06:48:32;;;;;;;3.00;2.23;;;17.10;71.00;;;;;;5045039;28;43698;-72
2022/11/23 06:51:01;;;;;;;2.10;2.00;;;17.10;71.00;;;;;;5045251;28;43510;-73
2022/11/23 06:53:31;;;;;;;2.50;2.30;;;17.00;71.60;;;;;;5045469;28;43841;-72
2022/11/23 06:56:03;;;;;;;2.33;2.03;;;17.00;71.20;;;;;;5039010;28;43405;-71
2022/11/23 06:58:33;;;;;;;2.60;2.40;;;17.10;71.40;;;;;;5046999;28;43392;-72
2022/11/23 07:01:05;;;;;;;2.33;2.23;;;17.20;71.10;;;;;;5043854;28;43424;-74
2022/11/23 07:03:39;;;;;;;2.53;2.13;;;17.30;70.60;;;;;;5050551;28;45559;-73
2022/11/23 07:06:19;;;;;;;2.70;2.50;;;17.30;70.40;;;;;;5046141;28;43445;-71
2022/11/23 07:08:49;;;;;;;2.27;2.17;;;17.30;71.00;;;;;;5045976;28;43427;-72
2022/11/23 07:11:28;;;;;;;2.30;2.10;;;17.20;70.40;;;;;;5044481;28;43436;-72
2022/11/23 07:13:57;;;;;;;2.73;2.50;;;17.20;70.80;;;;;;5050139;28;43757;-72
2022/11/23 07:16:28;;;;;;;2.40;2.20;;;17.20;70.60;;;;;;5050044;28;43623;-73
2022/11/23 07:18:57;;;;;;;1.83;1.73;;;17.20;70.60;;;;;;5044589;28;43516;-75
2022/11/23 07:21:26;;;;;;;2.33;1.90;;;17.20;70.70;;;;;;5051755;28;43577;-75
2022/11/23 07:23:54;;;;;;;2.90;2.50;;;17.10;70.70;;;;;;5047617;28;45584;-72
2022/11/23 07:26:21;;;;;;;3.10;2.43;;;17.10;70.90;;;;;;5046018;28;43494;-71
2022/11/23 07:28:49;;;;;;;2.70;2.40;;;17.00;71.20;;;;;;5043387;28;43420;-72
2022/11/23 07:31:19;;;;;;;2.60;2.40;;;17.00;71.00;;;;;;5049847;28;43460;-72
2022/11/23 07:33:47;;;;;;;2.00;1.90;;;17.00;70.90;;;;;;5046688;28;46027;-71
2022/11/23 07:36:16;;;;;;;2.40;2.20;;;17.00;70.90;;;;;;5040579;28;43436;-72
2022/11/23 07:38:45;;;;;;;2.30;2.10;;;17.00;71.00;;;;;;5045656;28;43487;-75
2022/11/23 07:41:16;;;;;;;2.80;2.60;;;17.00;71.00;;;;;;5040612;28;43577;-71
2022/11/23 07:44:05;;;;;;;3.00;2.50;;;17.00;71.40;;;;;;5034130;28;44247;-73
2022/11/23 07:46:34;;;;;;;2.70;2.50;;;17.00;71.40;;;;;;5048558;28;44971;-72
2022/11/23 07:49:03;;;;;;;2.67;2.47;;;17.20;71.10;;;;;;5044521;28;43412;-72
2022/11/23 07:51:31;;;;;;;2.30;2.20;;;17.30;70.60;;;;;;5044035;28;43397;-72
2022/11/23 07:53:59;;;;;;;2.40;2.20;;;17.30;70.40;;;;;;5051120;28;43835;-72
2022/11/23 07:56:27;;;;;;;2.27;2.07;;;17.20;70.30;;;;;;5047676;28;44622;-74
2022/11/23 07:58:54;;;;;;;2.17;2.07;;;17.20;70.70;;;;;;5045358;28;43457;-72
2022/11/23 08:01:22;;;;;;;2.20;2.00;;;17.20;70.60;;;;;;5048447;28;43372;-73
2022/11/23 08:03:52;;;;;;;2.30;2.20;;;17.20;70.50;;;;;;5049879;28;43602;-73
2022/11/23 08:06:19;;;;;;;2.20;2.10;;;17.20;70.60;;;;;;5045535;28;43492;-71
2022/11/23 08:08:47;;;;;;;2.50;2.33;;;17.10;70.60;;;;;;5049740;28;43436;-72
2022/11/23 08:11:17;;;;;;;2.40;2.20;;;17.10;70.70;;;;;;5050952;28;43661;-72
2022/11/23 08:13:45;;;;;;;2.60;2.50;;;17.10;70.90;;;;;;5045480;28;45376;-72
2022/11/23 08:16:13;;;;;;;1.83;1.73;;;17.10;71.20;;;;;;5042947;28;43447;-72
2022/11/23 08:18:41;;;;;;;2.10;2.00;;;17.10;71.00;;;;;;5046673;28;43423;-72
2022/11/23 08:21:10;;;;;;;2.37;2.23;;;17.00;70.90;;;;;;5050427;28;43456;-72
2022/11/23 08:23:38;;;;;;;2.33;2.20;;;17.00;70.90;;;;;;5043136;28;44330;-72
2022/11/23 08:26:06;;;;;;;2.20;2.00;;;17.00;71.00;;;;;;5052036;28;45026;-73
2022/11/23 08:28:40;;;;;;;2.47;2.27;;;17.00;71.10;;;;;;5047203;28;43353;-73
2022/11/23 08:31:08;;;;;;;2.10;2.00;;;17.00;71.40;;;;;;5046163;28;43472;-73
2022/11/23 08:33:36;;;;;;;2.60;2.40;;;17.00;71.40;;;;;;5049756;28;43924;-72
2022/11/23 08:36:05;;;;;;;2.20;2.10;;;17.10;71.00;;;;;;5047772;28;43423;-73
2022/11/23 08:38:34;;;;;;;2.13;2.00;;;17.20;70.60;;;;;;5046284;28;43449;-73
2022/11/23 08:41:02;;;;;;;2.47;2.27;;;17.20;70.50;;;;;;5058577;28;43407;-72
2022/11/23 08:43:30;;;;;;;2.20;2.07;;;17.20;70.60;;;;;;5048935;28;45639;-73
2022/11/23 08:45:58;;;;;;;2.03;1.93;;;17.10;70.60;;;;;;5069682;28;43435;-73
2022/11/23 08:48:33;;;;;;;2.30;2.20;;;17.10;70.90;;;;;;5067659;28;43950;-72
2022/11/23 08:51:03;;;;;;;2.40;2.30;;;17.10;70.70;;;;;;5053347;28;43432;-72
2022/11/23 08:53:31;;;;;;;2.40;2.20;;;17.10;70.80;;;;;;5045972;28;45981;-72
2022/11/23 08:56:02;;;;;;;2.20;2.10;;;17.10;70.80;;;;;;5049139;28;43477;-72
2022/11/23 08:58:30;;;;;;;2.30;2.20;;;17.10;70.90;;;;;;5057154;28;43757;-72
2022/11/23 09:00:58;;;;;;;1.90;1.80;;;17.00;70.90;;;;;;5072758;28;43317;-72
2022/11/23 09:03:25;;;;;;;2.37;2.27;;;17.00;71.30;;;;;;5068587;28;43654;-74
2022/11/23 09:05:54;;;;;;;4.97;2.23;;;17.00;71.10;;;;;;5069539;28;43482;-73
2022/11/23 09:08:22;;;;;;;2.10;2.00;;;17.00;71.00;;;;;;5067480;28;43413;-72
2022/11/23 09:10:50;;;;;;;2.07;1.93;;;17.00;71.00;;;;;;5075533;28;43562;-72
2022/11/23 09:13:19;;;;;;;2.40;2.17;;;17.00;71.10;;;;;;5071396;28;43737;-72
2022/11/23 09:15:47;;;;;;;2.00;1.90;;;17.00;71.10;;;;;;5074741;28;43356;-73
2022/11/23 09:18:15;;;;;;;2.60;2.40;;;17.00;71.30;;;;;;5069672;28;43462;-71
2022/11/23 09:20:43;;;;;;;2.30;2.20;;;17.00;71.50;;;;;;5068533;28;44093;-73
2022/11/23 09:23:11;;;;;;;2.40;2.30;;;17.10;71.10;;;;;;5074509;28;43623;-72
2022/11/23 09:25:42;;;;;;;2.53;2.30;;;17.30;70.80;;;;;;5068498;28;43439;-73
2022/11/23 09:28:11;;;;;;;2.37;2.17;;;17.30;70.40;;;;;;5048215;28;43400;-72
2022/11/23 09:30:40;;;;;;;2.27;2.10;;;17.30;70.30;;;;;;5067594;28;43426;-73
2022/11/23 09:33:08;;;;;;;2.10;2.00;;;17.20;70.30;;;;;;5069567;28;43587;-74
2022/11/23 09:35:36;;;;;;;2.20;2.10;;;17.20;71.50;;;;;;5055757;28;44292;-72
2022/11/23 09:38:10;;;;;;;2.20;2.10;;;17.20;70.50;;;;;;5069262;28;43825;-72
2022/11/23 09:40:39;;;;;;;2.30;2.20;;;17.20;70.60;;;;;;5066197;28;43431;-73
2022/11/23 09:43:26;;;;;;;1.93;1.83;;;17.20;70.80;;;;;;5068193;28;43670;-72
2022/11/23 09:45:56;;;;;;;2.23;2.13;;;17.10;70.80;;;;;;5067646;28;43434;-73
2022/11/23 09:48:37;;;;;;;1.90;1.80;;;17.10;70.90;;;;;;5068690;28;43484;-72
2022/11/23 09:51:06;;;;;;;1.87;1.77;;;17.10;71.30;;;;;;5059296;28;43928;-74
2022/11/23 09:53:37;;;;;;;1.93;1.83;;;17.10;71.10;;;;;;5072000;28;43871;-72
2022/11/23 09:56:05;;;;;;;2.30;2.20;;;17.10;71.00;;;;;;5042213;28;44647;-72
2022/11/23 09:58:36;;;;;;;2.27;2.10;;;17.10;71.10;;;;;;5053248;28;43469;-72
2022/11/23 10:01:07;;;;;;;2.10;2.00;;;17.00;71.00;;;;;;5067156;28;43400;-74
2022/11/23 10:03:38;;;;;;;2.23;2.13;;;17.00;71.10;;;;;;5070489;28;43807;-74
2022/11/23 10:06:19;;;;;;;2.20;2.10;;;17.00;71.30;;;;;;5068273;28;43490;-72
2022/11/23 10:08:57;;;;;;;2.10;2.00;;;17.00;71.40;;;;;;5069015;28;43421;-72
2022/11/23 10:11:31;;;;;;;2.07;1.97;;;17.20;71.10;;;;;;5050290;28;43479;-73
2022/11/23 10:14:05;;;;;;;2.20;2.10;;;17.30;70.70;;;;;;5073747;28;43833;-72
2022/11/23 10:16:38;;;;;;;2.00;1.90;;;17.30;70.40;;;;;;5058729;28;43432;-74
2022/11/23 10:19:11;;;;;;;2.10;2.00;;;17.20;70.40;;;;;;5071077;28;43472;-72
2022/11/23 10:21:42;;;;;;;1.87;1.77;;;17.20;70.70;;;;;;5053623;28;43564;-72
2022/11/23 10:24:18;;;;;;;2.10;2.00;;;17.20;70.70;;;;;;5049327;28;44138;-71
2022/11/23 10:26:47;;;;;;;1.90;1.80;;;17.20;70.60;;;;;;5068856;28;43785;-71
2022/11/23 10:29:17;;;;;;;2.07;1.97;;;17.20;70.70;;;;;;5066858;28;43420;-74
2022/11/23 10:31:48;;;;;;;2.10;2.00;;;17.20;70.80;;;;;;5049234;28;43411;-72
2022/11/23 10:34:27;;;;;;;1.73;1.70;;;17.10;70.80;;;;;;5064796;28;43699;-71
2022/11/23 10:36:55;;;;;;;1.77;1.77;;;17.10;71.00;;;;;;5061509;28;43454;-73
2022/11/23 10:39:24;;;;;;;1.83;1.83;;;17.10;71.10;;;;;;5069300;28;43406;-72
2022/11/23 10:41:52;;;;;;;1.80;1.70;;;17.10;71.10;;;;;;5067981;28;43479;-72
2022/11/23 10:44:31;;;;;;;2.20;2.10;;;17.10;71.10;;;;;;5069833;28;44533;-75
2022/11/23 10:47:00;;;;;;;1.87;1.80;;;17.10;71.10;;;;;;5066348;28;43384;-73
2022/11/23 10:49:29;;;;;;;2.03;1.93;;;17.10;71.10;;;;;;5070357;28;43420;-73
2022/11/23 10:51:57;;;;;;;2.00;1.93;;;17.00;71.10;;;;;;5045457;28;43571;-72
2022/11/23 10:54:30;;;;;;;2.00;1.90;;;17.00;71.40;;;;;;5066533;28;43745;-74
2022/11/23 10:57:00;;;;;;;2.10;2.00;;;17.10;71.20;;;;;;5069797;28;43466;-74
2022/11/23 10:59:34;;;;;;;1.97;1.87;;;17.20;70.80;;;;;;5044779;28;43465;-72
2022/11/23 11:02:14;;;;;;;1.93;1.83;;;17.30;70.50;;;;;;5060429;28;44060;-74
2022/11/23 11:04:42;;;;;;;1.93;1.83;;;17.30;70.50;;;;;;5068739;28;43936;-71
2022/11/23 11:07:23;;;;;;;1.70;1.70;;;17.30;70.60;;;;;;5064137;28;43429;-72
2022/11/23 11:09:52;;;;;;;1.43;1.43;;;17.20;70.80;;;;;;5069613;28;43474;-73
2022/11/23 11:12:20;;;;;;;2.07;1.97;;;17.20;70.60;;;;;;5069437;28;43402;-74
2022/11/23 11:15:01;;;;;;;1.80;1.70;;;17.20;70.60;;;;;;5057741;28;43890;-71
2022/11/23 11:17:40;;;;;;;1.70;1.60;;;17.20;70.70;;;;;;5049429;28;44700;-72
2022/11/23 11:20:32;;;;;;;1.70;1.70;;;17.20;70.80;;;;;;5066105;28;43438;-72
2022/11/23 11:23:01;;;;;;;1.97;1.87;;;17.10;70.80;;;;;;5070986;28;44068;-72
2022/11/23 11:25:31;;;;;;;1.83;1.73;;;17.10;71.10;;;;;;5066910;28;43888;-72
2022/11/23 11:27:59;;;;;;;1.80;1.70;;;17.10;71.00;;;;;;5064788;28;43392;-73
2022/11/23 11:30:31;;;;;;;1.77;1.73;;;17.10;70.90;;;;;;5066630;28;43481;-75
2022/11/23 11:33:04;;;;;;;1.60;1.60;;;17.10;70.90;;;;;;5062390;28;43342;-72
2022/11/23 11:35:33;;;;;;;1.87;1.80;;;17.10;71.00;;;;;;5063846;28;43592;-73
2022/11/23 11:38:02;;;;;;;1.80;1.70;;;17.10;71.00;;;;;;5059525;28;43349;-72
2022/11/23 11:40:32;;;;;;;2.23;2.03;;;17.10;71.30;;;;;;5070037;28;43429;-72
2022/11/23 11:43:02;;;;;;;1.90;1.80;;;17.20;71.20;;;;;;5070224;28;43321;-72
2022/11/23 11:45:33;;;;;;;1.70;1.60;;;17.20;70.80;;;;;;5069877;28;44131;-71
2022/11/23 11:48:04;;;;;;;1.60;1.60;;;17.30;70.50;;;;;;5059035;28;43348;-72
2022/11/23 11:50:36;;;;;;;1.60;1.60;;;17.30;71.40;;;;;;5051667;28;43472;-72
2022/11/23 11:53:06;;;;;;;1.73;1.63;;;17.30;70.60;;;;;;5065648;28;43482;-72
2022/11/23 11:55:44;;;;;;;1.47;1.47;;;17.20;70.70;;;;;;5061936;28;43707;-72
2022/11/23 11:58:14;;;;;;;1.77;1.77;;;17.20;71.50;;;;;;5069625;28;43453;-73
2022/11/23 12:00:42;;;;;;;1.83;1.73;;;17.20;70.60;;;;;;5065406;28;43396;-72
2022/11/23 12:03:20;;;;;;;2.00;1.90;;;17.20;70.70;;;;;;5066704;28;43418;-73
2022/11/23 12:05:49;;;;;;;1.47;1.43;;;17.20;70.80;;;;;;5069695;28;44108;-71
2022/11/23 12:08:20;;;;;;;1.83;1.80;;;17.10;70.80;;;;;;5047439;28;44593;-72
2022/11/23 12:10:49;;;;;;;1.90;1.80;;;17.10;70.90;;;;;;5063483;28;43472;-72
2022/11/23 12:13:18;;;;;;;1.90;1.80;;;17.10;71.20;;;;;;5059367;28;43952;-73
2022/11/23 12:15:47;;;;;;;2.03;1.60;;;17.20;70.90;;;;;;5058800;28;44044;-72
2022/11/23 12:18:57;;;;;;;1.77;1.70;;;17.30;70.60;;;;;;5057598;28;43386;-72
2022/11/23 12:21:44;;;;;;;1.40;1.40;;;17.30;70.30;;;;;;5063922;28;43396;-76
2022/11/23 12:24:20;;;;;;;1.80;1.70;;;17.30;70.30;;;;;;5049040;28;43451;-72
2022/11/23 12:26:53;;;;;;;1.40;1.40;;;17.20;71.20;;;;;;5062681;28;43902;-71
2022/11/23 12:29:35;;;;;;;1.70;1.60;;;17.20;70.60;;;;;;5044532;28;44665;-73
2022/11/23 12:32:08;;;;;;;1.73;1.63;;;17.20;70.60;;;;;;5063068;28;43453;-72
2022/11/23 12:34:45;;;;;;;1.60;1.50;;;17.20;70.60;;;;;;5048494;28;43573;-74
2022/11/23 12:37:31;;;;;;;1.80;1.70;;;17.20;70.70;;;;;;5062959;28;43842;-73
2022/11/23 12:40:29;;;;;;;1.37;1.37;;;17.10;70.80;;;;;;5050590;28;44699;-72
2022/11/23 12:43:00;;;;;;;1.80;1.70;;;17.10;71.00;;;;;;5067732;28;43815;-74
2022/11/23 12:45:44;;;;;;;1.70;1.70;;;17.10;71.00;;;;;;5069939;28;43364;-72
2022/11/23 12:48:21;;;;;;;1.70;1.70;;;17.10;70.90;;;;;;5063742;28;43605;-72
2022/11/23 12:50:55;;;;;;;1.50;1.50;;;17.10;70.90;;;;;;5068583;28;43421;-72
2022/11/23 12:53:31;;;;;;;1.40;1.40;;;17.10;71.10;;;;;;5046614;28;43440;-73
2022/11/23 12:56:03;;;;;;;1.50;1.50;;;17.10;71.00;;;;;;5057969;28;43395;-74
2022/11/23 12:58:33;;;;;;;1.30;1.30;;;17.10;71.30;;;;;;5064157;28;43721;-73
2022/11/23 13:01:02;;;;;;;1.70;1.60;;;17.10;71.10;;;;;;5045851;28;44376;-73
2022/11/23 13:03:56;;;;;;;1.40;1.40;;;17.10;71.10;;;;;;5064275;28;43413;-73
2022/11/23 13:06:57;;;;;;;1.70;1.60;;;17.10;71.10;;;;;;5056497;28;43500;-72
2022/11/23 13:10:15;;;;;;;1.47;1.47;;;17.10;71.10;;;;;;5065384;28;44052;-72